Time;durP1;ratioP1;P1;durP2;ratioP2;P2;SDS_P1;SDS_P2;PMS_P1;PMS_P2;Temp;Humidity;BMP_temperature;BMP_pressure;BME280_temperature;BME280_humidity;BME280_pressure;Samples;Min_cycle;Max_cycle;Signal;HPM_P1;HPM_P2
2022/10/15 00:00:33;;;;;;;;;3.00;3.00;;;;;17.41;76.88;100501.69;5091555;28;44868;-67
2022/10/15 00:02:59;;;;;;;;;5.00;4.67;;;;;17.39;77.16;100492.72;5090988;28;45169;-67
2022/10/15 00:05:24;;;;;;;;;5.67;4.67;;;;;17.41;77.37;100501.69;5090956;28;44898;-67
2022/10/15 00:07:49;;;;;;;;;6.67;4.00;;;;;17.39;77.27;100491.78;5089937;27;45089;-67
2022/10/15 00:10:16;;;;;;;;;5.00;5.00;;;;;17.42;76.85;100495.41;5071404;28;45278;-67
2022/10/15 00:12:41;;;;;;;;;9.67;7.33;;;;;17.41;77.43;100484.59;5090103;28;45162;-67
2022/10/15 00:15:07;;;;;;;;;9.00;7.33;;;;;17.41;77.62;100499.00;5083451;28;45174;-67
2022/10/15 00:17:34;;;;;;;;;8.00;8.00;;;;;17.39;77.77;100489.09;5090701;28;45065;-67
2022/10/15 00:20:00;;;;;;;;;8.67;7.33;;;;;17.41;77.55;100490.91;5089449;28;45542;-65
2022/10/15 00:22:26;;;;;;;;;5.00;5.00;;;;;17.42;77.76;100490.00;5091637;28;45456;-67
2022/10/15 00:24:51;;;;;;;;;6.00;5.00;;;;;17.37;77.70;100488.22;5091797;28;44978;-66
2022/10/15 00:27:16;;;;;;;;;7.33;6.00;;;;;17.39;77.90;100484.63;5090118;28;46280;-67
2022/10/15 00:29:42;;;;;;;;;6.67;4.33;;;;;17.39;78.25;100491.78;5091283;28;45122;-67
2022/10/15 00:32:08;;;;;;;;;10.00;8.00;;;;;17.40;78.71;100489.09;5089899;28;59988;-68
2022/10/15 00:34:33;;;;;;;;;11.33;8.33;;;;;17.37;78.46;100470.19;5090827;28;45154;-66
2022/10/15 00:36:58;;;;;;;;;11.00;9.33;;;;;17.30;78.63;100463.94;5089614;28;45085;-67
2022/10/15 00:39:24;;;;;;;;;9.00;7.67;;;;;17.28;78.74;100449.56;5090927;28;45027;-66
2022/10/15 00:41:49;;;;;;;;;10.33;9.00;;;;;17.38;78.39;100466.59;5089949;28;46247;-67
2022/10/15 00:44:20;;;;;;;;;10.67;9.00;;;;;17.48;78.83;100476.44;5087903;28;45105;-67
2022/10/15 00:46:49;;;;;;;;;6.00;5.00;;;;;17.23;78.48;100432.50;5088938;28;45223;-68
2022/10/15 00:49:25;;;;;;;;;10.33;7.33;;;;;17.52;78.40;100471.91;5090647;28;45152;-66
2022/10/15 00:52:05;;;;;;;;;12.00;8.00;;;;;17.44;78.66;100465.66;5089384;28;47566;-68
2022/10/15 00:54:36;;;;;;;;;7.00;6.67;;;;;17.37;79.11;100450.41;5087422;28;45064;-66
2022/10/15 00:57:04;;;;;;;;;9.00;6.00;;;;;17.53;79.20;100471.00;5087270;28;45079;-68
2022/10/15 00:59:33;;;;;;;;;7.33;5.33;;;;;17.50;79.18;100458.44;5088006;28;45099;-67
2022/10/15 01:01:59;;;;;;;;;11.67;8.33;;;;;17.52;79.17;100463.81;5089826;28;46320;-67
2022/10/15 01:04:25;;;;;;;;;8.00;5.00;;;;;17.54;79.35;100461.09;5090341;28;45124;-65
2022/10/15 01:06:51;;;;;;;;;7.33;7.00;;;;;17.42;78.96;100433.28;5089841;28;45185;-66
2022/10/15 01:09:16;;;;;;;;;6.33;6.33;;;;;17.54;79.11;100451.22;5072169;28;45131;-66
2022/10/15 01:11:53;;;;;;;;;8.00;6.33;;;;;17.57;79.31;100452.97;5089413;28;45163;-66
2022/10/15 01:14:27;;;;;;;;;5.00;3.00;;;;;17.20;79.20;100383.91;5090231;28;45198;-68
2022/10/15 01:17:26;;;;;;;;;9.67;7.33;;;;;17.56;79.20;100441.28;5088679;28;45453;-66
2022/10/15 01:20:16;;;;;;;;;5.67;5.67;;;;;17.54;79.34;100434.09;5091138;27;45173;-67
2022/10/15 01:23:22;;;;;;;;;5.33;5.33;;;;;17.54;79.64;100425.97;5087618;28;45198;-66
2022/10/15 01:26:04;;;;;;;;;4.33;4.33;;;;;17.52;79.33;100426.00;5091861;28;45206;-66
2022/10/15 01:28:50;;;;;;;;;4.33;4.33;;;;;17.51;79.85;100421.50;5089122;28;44940;-65
2022/10/15 01:31:34;;;;;;;;;5.00;3.67;;;;;17.49;79.41;100410.72;5089870;28;45173;-66
2022/10/15 01:34:11;;;;;;;;;8.33;4.67;;;;;17.49;79.36;100416.13;5089844;28;45486;-68
2022/10/15 01:36:46;;;;;;;;;4.00;4.00;;;;;17.34;79.88;100380.22;5090192;28;45165;-65
2022/10/15 01:39:19;;;;;;;;;5.67;3.67;;;;;17.47;79.93;100403.53;5090155;28;45358;-67
2022/10/15 01:41:54;;;;;;;;;3.00;3.00;;;;;17.47;79.60;100395.41;5090314;28;45011;-66
2022/10/15 01:44:26;;;;;;;;;4.00;3.33;;;;;17.48;79.62;100397.22;5085543;28;45767;-67
2022/10/15 01:47:03;;;;;;;;;3.00;2.00;;;;;17.37;79.62;100374.81;5090314;28;45256;-67
2022/10/15 01:49:32;;;;;;;;;1.00;1.00;;;;;17.29;78.83;100356.88;5070067;27;45305;-67
2022/10/15 01:52:03;;;;;;;;;2.00;1.67;;;;;17.42;79.34;100390.06;5092387;28;45616;-66
2022/10/15 01:54:28;;;;;;;;;5.67;3.33;;;;;17.39;79.83;100383.78;5091322;28;46274;-68
2022/10/15 01:56:56;;;;;;;;;2.33;2.33;;;;;17.41;79.90;100382.00;5090307;28;44943;-66
2022/10/15 01:59:26;;;;;;;;;1.00;1.00;;;;;17.40;79.73;100380.19;5088904;28;44901;-66
2022/10/15 02:01:51;;;;;;;;;4.67;3.67;;;;;17.40;79.89;100374.78;5091640;28;44903;-65
2022/10/15 02:04:26;;;;;;;;;3.00;3.00;;;;;17.34;79.92;100362.22;5089414;28;45833;-66
2022/10/15 02:07:01;;;;;;;;;3.00;3.00;;;;;17.36;79.82;100362.22;5088136;28;45120;-66
2022/10/15 02:09:42;;;;;;;;;3.00;3.00;;;;;17.38;79.67;100355.88;5088781;28;45190;-65
2022/10/15 02:12:37;;;;;;;;;2.00;2.00;;;;;17.31;79.86;100344.25;5085059;28;45414;-66
2022/10/15 02:15:09;;;;;;;;;5.33;4.00;;;;;17.37;80.05;100345.09;5090861;28;45079;-65
2022/10/15 02:17:44;;;;;;;;;4.00;4.00;;;;;17.33;79.94;100319.94;5089721;28;45192;-66
2022/10/15 02:20:44;;;;;;;;;6.67;6.33;;;;;17.40;80.34;100332.47;5088963;28;45170;-65
2022/10/15 02:23:17;;;;;;;;;6.33;5.00;;;;;17.39;80.21;100335.16;5087079;28;46224;-65
2022/10/15 02:25:45;;;;;;;;;6.67;6.33;;;;;17.36;80.32;100324.41;5088487;28;45394;-65
2022/10/15 02:28:13;;;;;;;;;3.00;2.00;;;;;17.35;80.49;100317.22;5089670;28;45187;-67
2022/10/15 02:30:40;;;;;;;;;5.00;4.00;;;;;17.37;80.58;100307.28;5089148;27;45415;-65
2022/10/15 02:33:07;;;;;;;;;6.00;3.33;;;;;17.34;80.52;100292.03;5089949;28;45227;-66
2022/10/15 02:35:33;;;;;;;;;3.00;3.00;;;;;17.43;80.13;100294.63;5089674;28;45179;-66
2022/10/15 02:38:04;;;;;;;;;9.00;9.00;;;;;17.43;80.17;100296.44;5087465;28;45580;-68
2022/10/15 02:40:33;;;;;;;;;6.67;6.00;;;;;17.47;79.93;100292.78;5089980;28;45020;-66
2022/10/15 02:42:58;;;;;;;;;3.33;3.00;;;;;17.45;80.13;100282.00;5089520;28;45303;-66
2022/10/15 02:45:24;;;;;;;;;2.00;2.00;;;;;17.47;80.03;100271.19;5087522;28;45374;-65
2022/10/15 02:47:49;;;;;;;;;2.33;2.00;;;;;17.35;79.96;100236.22;5086774;28;46411;-66
2022/10/15 02:50:14;;;;;;;;;3.00;2.33;;;;;16.91;80.43;100158.34;5083633;27;52345;-66
2022/10/15 02:52:40;;;;;;;;;1.00;1.00;;;;;17.10;80.63;100198.66;5090333;28;45063;-66
2022/10/15 02:55:05;;;;;;;;;2.33;2.33;;;;;17.42;80.56;100257.75;5086668;28;56133;-66
2022/10/15 02:57:31;;;;;;;;;6.67;4.00;;;;;17.33;80.42;100229.94;5091053;28;45090;-66
2022/10/15 02:59:56;;;;;;;;;3.00;3.00;;;;;17.27;80.91;100218.28;5087860;28;59038;-65
2022/10/15 03:02:21;;;;;;;;;5.33;2.33;;;;;17.41;80.38;100242.44;5088539;28;45154;-65
2022/10/15 03:04:46;;;;;;;;;5.67;4.33;;;;;17.46;80.37;100246.00;5088603;28;45295;-66
2022/10/15 03:07:13;;;;;;;;;4.00;4.00;;;;;17.46;80.72;100253.22;5088100;28;53121;-67
2022/10/15 03:09:38;;;;;;;;;4.33;4.33;;;;;17.45;80.98;100249.59;5087829;28;45500;-65
2022/10/15 03:12:03;;;;;;;;;2.67;2.00;;;;;17.33;81.08;100228.13;5090751;28;47051;-65
2022/10/15 03:14:29;;;;;;;;;8.00;4.00;;;;;17.41;80.65;100231.63;5089549;28;45455;-66
2022/10/15 03:16:54;;;;;;;;;6.00;5.33;;;;;17.43;81.26;100227.13;5072583;28;47112;-65
2022/10/15 03:19:19;;;;;;;;;8.67;5.00;;;;;17.42;81.17;100229.81;5088462;28;54375;-67
2022/10/15 03:21:45;;;;;;;;;3.00;3.00;;;;;17.41;81.05;100228.06;5088108;28;45235;-67
2022/10/15 03:24:10;;;;;;;;;8.33;8.33;;;;;17.40;81.56;100220.84;5086212;28;60956;-66
2022/10/15 03:26:36;;;;;;;;;0.67;0.67;;;;;17.35;81.43;100207.38;5089153;28;45186;-66
2022/10/15 03:29:01;;;;;;;;;2.00;1.67;;;;;17.41;81.30;100210.03;5091098;28;45085;-66
2022/10/15 03:31:26;;;;;;;;;2.00;1.00;;;;;17.35;81.69;100201.09;5090255;28;45071;-67
2022/10/15 03:33:52;;;;;;;;;3.00;2.00;;;;;17.39;81.96;100210.94;5090288;28;46096;-67
2022/10/15 03:36:17;;;;;;;;;2.33;1.33;;;;;17.39;81.79;100206.47;5091525;28;50211;-67
2022/10/15 03:38:42;;;;;;;;;0.00;0.00;;;;;17.37;82.21;100202.88;5089752;28;48216;-67
2022/10/15 03:41:08;;;;;;;;;1.33;1.33;;;;;17.41;82.22;100204.63;5091098;27;45382;-66
2022/10/15 03:43:33;;;;;;;;;2.00;2.00;;;;;17.42;81.85;100195.63;5088486;28;45116;-66
2022/10/15 03:46:02;;;;;;;;;2.00;2.00;;;;;17.40;82.18;100191.16;5091815;28;46195;-65
2022/10/15 03:48:28;;;;;;;;;1.00;1.00;;;;;17.24;82.37;100160.72;5071691;28;45162;-65
2022/10/15 03:50:53;;;;;;;;;1.00;1.00;;;;;17.35;83.06;100187.59;5091802;28;45226;-65
2022/10/15 03:53:19;;;;;;;;;2.00;1.00;;;;;17.36;82.27;100176.78;5091655;28;46055;-67
2022/10/15 03:55:44;;;;;;;;;2.00;1.00;;;;;17.37;82.71;100181.25;5090250;28;53231;-65
2022/10/15 03:58:09;;;;;;;;;1.00;1.00;;;;;17.38;82.70;100180.38;5088877;28;45088;-67
2022/10/15 04:00:35;;;;;;;;;3.33;1.00;;;;;17.39;82.77;100175.84;5091382;28;45253;-66
2022/10/15 04:03:00;;;;;;;;;1.00;1.00;;;;;17.40;82.72;100170.44;5088713;28;58898;-67
2022/10/15 04:05:25;;;;;;;;;6.33;4.33;;;;;17.41;82.72;100166.84;5088370;28;45250;-66
2022/10/15 04:07:50;;;;;;;;;7.67;5.00;;;;;17.42;82.99;100154.22;5084185;28;45435;-66
2022/10/15 04:10:16;;;;;;;;;8.00;4.00;;;;;17.42;82.88;100156.91;5090395;28;44946;-66
2022/10/15 04:12:41;;;;;;;;;1.67;0.00;;;;;17.42;83.07;100148.81;5088428;28;45073;-66
2022/10/15 04:15:07;;;;;;;;;2.33;1.00;;;;;17.41;83.26;100153.31;5069309;28;57319;-67
2022/10/15 04:17:32;;;;;;;;;1.00;1.00;;;;;16.83;83.32;100048.66;5066998;28;45255;-66
2022/10/15 04:19:57;;;;;;;;;1.00;1.00;;;;;17.34;83.66;100154.31;5084895;28;45059;-66
2022/10/15 04:22:23;;;;;;;;;3.00;2.33;;;;;17.29;84.12;100151.66;5089786;28;45687;-65
2022/10/15 04:24:48;;;;;;;;;4.67;3.00;;;;;17.29;84.30;100148.03;5086938;28;47629;-67
2022/10/15 04:27:14;;;;;;;;;2.33;2.33;;;;;17.29;84.34;100148.97;5087509;28;45122;-67
2022/10/15 04:29:39;;;;;;;;;3.33;2.00;;;;;17.18;84.35;100123.88;5089057;28;45456;-65
2022/10/15 04:32:05;;;;;;;;;4.67;3.67;;;;;17.27;84.46;100140.00;5089981;28;45884;-67
2022/10/15 04:34:30;;;;;;;;;3.33;3.33;;;;;17.31;84.36;100140.84;5089996;28;46813;-66
2022/10/15 04:36:55;;;;;;;;;4.00;4.00;;;;;17.16;84.60;100114.91;5091412;28;45159;-66
2022/10/15 04:39:21;;;;;;;;;6.33;4.00;;;;;17.18;84.92;100129.28;5088912;28;45013;-64
2022/10/15 04:41:46;;;;;;;;;6.67;2.33;;;;;17.28;84.97;100138.19;5090465;28;45315;-68
2022/10/15 04:44:11;;;;;;;;;4.33;1.67;;;;;17.29;85.52;100146.25;5084608;28;45042;-65
2022/10/15 04:46:37;;;;;;;;;3.33;2.33;;;;;16.93;85.42;100088.16;5088942;28;45397;-65
2022/10/15 04:49:02;;;;;;;;;1.00;1.00;;;;;17.30;85.18;100142.63;5072402;28;45203;-65
2022/10/15 04:51:27;;;;;;;;;1.00;1.00;;;;;17.32;85.44;100148.03;5090865;27;45913;-66
2022/10/15 04:53:53;;;;;;;;;2.67;1.67;;;;;17.32;85.70;100153.41;5091818;27;45261;-67
2022/10/15 04:56:20;;;;;;;;;2.00;2.00;;;;;17.31;85.43;100155.22;5092133;28;45183;-67
2022/10/15 04:58:47;;;;;;;;;2.00;2.00;;;;;17.29;85.44;100148.03;5092238;28;45795;-67
2022/10/15 05:01:15;;;;;;;;;1.00;1.00;;;;;17.36;85.75;100163.28;5090211;28;46266;-67
2022/10/15 05:03:42;;;;;;;;;3.33;1.00;;;;;17.36;85.51;100162.41;5091634;28;45128;-66
2022/10/15 05:06:10;;;;;;;;;2.67;1.00;;;;;17.36;85.65;100155.19;5091102;28;45159;-66
2022/10/15 05:08:37;;;;;;;;;2.00;1.00;;;;;17.24;85.23;100133.72;5090996;28;45355;-67
2022/10/15 05:11:13;;;;;;;;;1.67;1.00;;;;;17.37;85.44;100159.66;5089878;27;45764;-66
2022/10/15 05:13:39;;;;;;;;;3.00;2.00;;;;;17.40;85.19;100164.16;5090892;28;45214;-67
2022/10/15 05:16:15;;;;;;;;;1.00;1.00;;;;;17.27;85.33;100148.09;5088077;28;45177;-67
2022/10/15 05:18:42;;;;;;;;;0.00;0.00;;;;;17.40;85.31;100169.53;5090704;28;45714;-67
2022/10/15 05:21:08;;;;;;;;;1.00;1.00;;;;;17.30;85.45;100139.03;5090067;28;45654;-65
2022/10/15 05:23:34;;;;;;;;;5.33;4.00;;;;;17.43;85.51;100161.41;5090958;28;45582;-65
2022/10/15 05:26:01;;;;;;;;;1.67;1.67;;;;;17.38;84.89;100150.66;5087461;28;45383;-66
2022/10/15 05:28:26;;;;;;;;;3.00;1.00;;;;;17.44;85.59;100155.09;5092089;28;45307;-65
2022/10/15 05:30:51;;;;;;;;;3.33;0.67;;;;;17.30;84.96;100133.66;5092747;28;45637;-67
2022/10/15 05:33:17;;;;;;;;;1.33;1.33;;;;;17.29;85.11;100134.53;5092592;28;59033;-67
2022/10/15 05:35:42;;;;;;;;;1.00;1.00;;;;;17.42;85.38;100165.94;5092723;28;47385;-66
2022/10/15 05:38:07;;;;;;;;;3.67;1.00;;;;;17.43;85.49;100153.31;5092617;28;58169;-67
2022/10/15 05:40:33;;;;;;;;;2.00;0.00;;;;;17.39;85.38;100141.66;5093206;28;45737;-66
2022/10/15 05:42:58;;;;;;;;;0.67;0.67;;;;;17.36;85.34;100128.19;5092550;28;44974;-65
2022/10/15 05:45:23;;;;;;;;;2.33;0.33;;;;;17.50;85.43;100160.41;5094294;28;45308;-65
2022/10/15 05:47:54;;;;;;;;;1.00;0.00;;;;;17.48;84.92;100149.63;5091989;28;45231;-66
2022/10/15 05:50:19;;;;;;;;;0.67;0.00;;;;;17.53;85.17;100152.28;5091800;27;45208;-66
2022/10/15 05:52:44;;;;;;;;;0.00;0.00;;;;;17.56;85.03;100149.56;5092613;28;60214;-66
2022/10/15 05:55:09;;;;;;;;;0.00;0.00;;;;;17.09;84.82;100073.59;5092221;28;52660;-67
2022/10/15 05:57:35;;;;;;;;;2.00;0.00;;;;;17.55;84.80;100141.47;5089007;28;45190;-67
2022/10/15 06:00:01;;;;;;;;;1.00;1.00;;;;;17.58;85.26;100150.41;5092770;28;46505;-66
2022/10/15 06:02:26;;;;;;;;;1.67;1.00;;;;;17.59;85.30;100137.84;5092543;28;45250;-67
2022/10/15 06:04:52;;;;;;;;;0.00;0.00;;;;;17.60;85.27;100145.88;5089563;27;45150;-66
2022/10/15 06:07:17;;;;;;;;;0.00;0.00;;;;;17.60;85.22;100151.28;5092459;28;45095;-65
2022/10/15 06:09:43;;;;;;;;;2.00;0.00;;;;;17.61;85.14;100146.81;5085613;28;45834;-66
2022/10/15 06:12:08;;;;;;;;;2.00;0.00;;;;;17.58;85.19;100150.41;5093442;28;45071;-65
2022/10/15 06:14:33;;;;;;;;;0.00;0.00;;;;;17.55;85.30;100138.75;5091799;28;53357;-66
2022/10/15 06:16:58;;;;;;;;;0.33;0.33;;;;;17.58;85.35;100144.13;5092580;28;45085;-65
2022/10/15 06:19:24;;;;;;;;;0.00;0.00;;;;;17.58;85.70;100150.41;5085606;28;67178;-66
2022/10/15 06:21:49;;;;;;;;;2.00;2.00;;;;;17.61;85.69;100150.38;5090088;28;56607;-63
2022/10/15 06:24:14;;;;;;;;;1.33;1.00;;;;;17.50;85.92;100126.22;5088860;28;53536;-66
2022/10/15 06:26:40;;;;;;;;;0.00;0.00;;;;;17.62;85.73;100151.28;5090421;28;45368;-68
2022/10/15 06:29:05;;;;;;;;;1.33;1.33;;;;;17.63;86.33;100155.78;5091592;28;59515;-66
2022/10/15 06:31:30;;;;;;;;;2.00;1.00;;;;;17.63;85.85;100158.47;5090170;28;61468;-68
2022/10/15 06:33:56;;;;;;;;;3.33;3.33;;;;;17.64;85.99;100168.38;5073716;28;45042;-67
2022/10/15 06:36:23;;;;;;;;;1.00;0.00;;;;;17.64;85.76;100165.69;5088252;28;45540;-67
2022/10/15 06:38:48;;;;;;;;;1.00;1.00;;;;;17.50;86.12;100142.44;5090557;28;45749;-67
2022/10/15 06:41:13;;;;;;;;;1.00;1.00;;;;;17.64;86.03;100173.78;5091994;28;45012;-67
2022/10/15 06:43:39;;;;;;;;;0.00;0.00;;;;;17.61;86.16;100163.00;5092975;28;45076;-67
2022/10/15 06:46:05;;;;;;;;;1.67;0.00;;;;;17.56;86.04;100164.88;5093232;28;45073;-67
2022/10/15 06:48:31;;;;;;;;;2.00;1.00;;;;;17.47;86.08;100147.88;5090321;28;46490;-66
2022/10/15 06:51:01;;;;;;;;;0.00;0.00;;;;;17.63;86.19;100182.78;5091509;27;46304;-67
2022/10/15 06:53:27;;;;;;;;;0.00;0.00;;;;;17.63;86.47;100180.97;5093831;27;45771;-67
2022/10/15 06:56:01;;;;;;;;;1.00;1.00;;;;;17.61;86.46;100176.53;5091640;28;45207;-67
2022/10/15 06:58:26;;;;;;;;;0.67;0.67;;;;;17.62;86.62;100176.50;5086255;28;45823;-66
2022/10/15 07:00:52;;;;;;;;;3.00;0.00;;;;;17.61;86.89;100171.13;5090783;28;45029;-67
2022/10/15 07:03:17;;;;;;;;;0.67;0.67;;;;;17.67;86.59;100173.75;5090546;28;45183;-66
2022/10/15 07:05:42;;;;;;;;;1.00;1.00;;;;;17.68;86.57;100180.91;5067779;28;45252;-66
2022/10/15 07:08:08;;;;;;;;;1.00;1.00;;;;;17.56;86.55;100159.47;5088999;28;46171;-67
2022/10/15 07:10:33;;;;;;;;;0.00;0.00;;;;;17.58;86.63;100160.34;5089654;28;47662;-66
2022/10/15 07:13:00;;;;;;;;;3.00;0.00;;;;;17.61;86.68;100157.59;5087667;28;45126;-67
2022/10/15 07:15:26;;;;;;;;;0.00;0.00;;;;;17.34;86.70;100113.81;5091885;28;45186;-66
2022/10/15 07:18:00;;;;;;;;;1.00;0.00;;;;;17.73;86.73;100175.47;5089825;28;45049;-65
2022/10/15 07:20:26;;;;;;;;;2.00;0.00;;;;;17.75;86.51;100182.66;5073305;28;45049;-65
2022/10/15 07:22:59;;;;;;;;;1.00;1.00;;;;;17.81;86.65;100189.78;5091123;28;45162;-64
2022/10/15 07:25:26;;;;;;;;;4.33;2.33;;;;;17.80;86.49;100193.38;5085226;28;45109;-67
2022/10/15 07:27:51;;;;;;;;;3.00;3.00;;;;;17.84;86.55;100205.97;5090728;28;46095;-65
2022/10/15 07:30:17;;;;;;;;;4.00;4.00;;;;;17.88;86.20;100204.16;5091678;28;45164;-66
2022/10/15 07:32:43;;;;;;;;;2.00;2.00;;;;;17.88;86.04;100205.03;5083110;28;45349;-68
2022/10/15 07:35:08;;;;;;;;;2.00;0.00;;;;;17.85;86.35;100205.94;5086674;28;45835;-66
2022/10/15 07:37:34;;;;;;;;;0.00;0.00;;;;;17.87;86.13;100205.97;5089117;28;45375;-67
2022/10/15 07:39:59;;;;;;;;;3.00;1.00;;;;;17.90;86.21;100211.34;5088571;28;45225;-68
2022/10/15 07:42:25;;;;;;;;;0.00;0.00;;;;;17.91;86.25;100205.00;5088908;28;45387;-64
2022/10/15 07:44:50;;;;;;;;;1.00;1.00;;;;;17.97;86.10;100214.84;5090103;28;45109;-66
2022/10/15 07:47:15;;;;;;;;;0.00;0.00;;;;;17.99;86.13;100213.03;5091873;28;45271;-66
2022/10/15 07:49:40;;;;;;;;;0.00;0.00;;;;;18.01;85.91;100219.28;5083308;27;46084;-65
2022/10/15 07:52:07;;;;;;;;;1.00;1.00;;;;;18.04;86.15;100221.97;5090393;28;45080;-64
2022/10/15 07:54:33;;;;;;;;;0.00;0.00;;;;;17.89;85.75;100196.03;5088668;28;45916;-67
2022/10/15 07:56:58;;;;;;;;;0.00;0.00;;;;;18.07;85.61;100230.03;5087581;28;45346;-65
2022/10/15 07:59:24;;;;;;;;;1.00;0.00;;;;;18.09;85.93;100230.91;5076529;28;54761;-65
2022/10/15 08:01:50;;;;;;;;;2.00;2.00;;;;;18.11;85.86;100228.19;5087417;28;44865;-68
2022/10/15 08:04:15;;;;;;;;;0.00;0.00;;;;;18.03;85.58;100220.16;5071550;28;46305;-67
2022/10/15 08:06:41;;;;;;;;;1.00;1.00;;;;;18.10;85.65;100239.91;5069203;28;45968;-68
2022/10/15 08:09:06;;;;;;;;;2.00;0.00;;;;;18.11;85.64;100245.28;5087189;28;45152;-68
2022/10/15 08:11:31;;;;;;;;;0.00;0.00;;;;;18.09;85.59;100241.72;5082246;28;52717;-71
2022/10/15 08:13:57;;;;;;;;;0.00;0.00;;;;;18.15;85.31;100241.66;5069516;28;50221;-65
2022/10/15 08:16:22;;;;;;;;;1.00;0.67;;;;;18.14;85.33;100245.25;5072815;28;46008;-68
2022/10/15 08:18:48;;;;;;;;;2.67;1.00;;;;;18.17;85.10;100244.34;5076335;28;45152;-64
2022/10/15 08:21:13;;;;;;;;;0.00;0.00;;;;;17.83;85.15;100185.25;5091578;28;44956;-66
2022/10/15 08:23:39;;;;;;;;;0.00;0.00;;;;;18.21;85.06;100249.69;5091603;28;45005;-66
2022/10/15 08:26:04;;;;;;;;;0.67;0.67;;;;;18.19;84.69;100234.38;5091636;28;45080;-65
2022/10/15 08:28:32;;;;;;;;;1.00;1.00;;;;;18.19;84.25;100247.91;5092303;27;45195;-65
2022/10/15 08:30:58;;;;;;;;;2.33;2.33;;;;;18.22;84.25;100250.56;5088577;28;45032;-66
2022/10/15 08:33:23;;;;;;;;;1.00;1.00;;;;;18.22;84.16;100248.75;5095710;28;45134;-67
2022/10/15 08:35:49;;;;;;;;;3.33;2.00;;;;;18.21;84.27;100238.88;5093980;28;45707;-66
2022/10/15 08:38:15;;;;;;;;;1.33;1.33;;;;;18.27;84.14;100247.81;5095173;28;45220;-66
2022/10/15 08:40:48;;;;;;;;;0.67;0.00;;;;;18.27;83.12;100247.81;5087845;28;45132;-66
2022/10/15 08:43:22;;;;;;;;;0.00;0.00;;;;;18.26;82.91;100254.13;5095042;28;45142;-63
2022/10/15 08:45:51;;;;;;;;;2.33;1.00;;;;;18.25;82.46;100255.94;5094796;28;45837;-65
2022/10/15 08:48:26;;;;;;;;;0.00;0.00;;;;;18.28;82.30;100264.03;5095040;28;45198;-65
2022/10/15 08:51:25;;;;;;;;;1.00;0.00;;;;;18.33;82.06;100266.63;5093483;27;45217;-66
2022/10/15 08:53:58;;;;;;;;;1.00;1.00;;;;;18.38;81.92;100278.31;5075012;28;45015;-67
2022/10/15 08:56:32;;;;;;;;;1.00;1.00;;;;;18.44;81.51;100269.22;5075707;28;46497;-65
2022/10/15 08:59:05;;;;;;;;;3.00;1.00;;;;;18.49;80.89;100267.34;5087748;28;45040;-66
2022/10/15 09:01:56;;;;;;;;;0.00;0.00;;;;;18.54;80.40;100270.88;5093971;28;45017;-68
2022/10/15 09:04:31;;;;;;;;;1.00;1.00;;;;;18.51;80.14;100251.97;5094623;28;45087;-66
2022/10/15 09:07:11;;;;;;;;;2.00;1.67;;;;;18.67;79.58;100275.19;5093446;28;45159;-66
2022/10/15 09:09:50;;;;;;;;;1.00;1.00;;;;;18.75;79.24;100277.78;5094140;28;44997;-66
2022/10/15 09:12:42;;;;;;;;;1.00;1.00;;;;;18.76;78.28;100276.88;5071288;28;45167;-66
2022/10/15 09:15:17;;;;;;;;;1.00;1.00;;;;;18.79;78.30;100283.13;5094101;28;45072;-65
2022/10/15 09:17:47;;;;;;;;;0.33;0.33;;;;;18.87;77.92;100287.56;5093271;28;46735;-65
2022/10/15 09:20:24;;;;;;;;;1.67;0.33;;;;;18.97;77.33;100283.78;5093535;28;45111;-64
2022/10/15 09:22:50;;;;;;;;;2.00;2.00;;;;;19.06;76.61;100277.34;5086773;28;45269;-66
2022/10/15 09:25:19;;;;;;;;;1.00;1.00;;;;;19.16;76.35;100287.09;5094074;28;45277;-65
2022/10/15 09:27:48;;;;;;;;;1.00;1.00;;;;;19.30;75.34;100292.28;5092801;28;46568;-67
2022/10/15 09:30:22;;;;;;;;;0.33;0.00;;;;;19.32;74.59;100285.94;5092647;28;45027;-65
2022/10/15 09:32:49;;;;;;;;;0.67;0.67;;;;;19.30;73.84;100295.00;5093824;28;45083;-67
2022/10/15 09:35:27;;;;;;;;;1.00;1.00;;;;;19.31;74.57;100300.38;5093336;28;45296;-65
2022/10/15 09:38:17;;;;;;;;;1.33;1.33;;;;;19.27;74.35;100293.25;5091502;28;45377;-65
2022/10/15 09:41:15;;;;;;;;;1.67;0.00;;;;;19.03;73.67;100234.09;5092171;27;45028;-65
2022/10/15 09:43:43;;;;;;;;;0.00;0.00;;;;;19.49;73.10;100295.59;5089318;28;45163;-66
2022/10/15 09:46:10;;;;;;;;;0.00;0.00;;;;;19.56;72.88;100301.78;5092682;28;45259;-67
2022/10/15 09:49:20;;;;;;;;;0.00;0.00;;;;;19.58;72.22;100305.34;5090698;28;45061;-66
2022/10/15 09:51:52;;;;;;;;;0.67;0.67;;;;;19.61;71.48;100308.03;5009733;28;45422;-67
2022/10/15 09:54:24;;;;;;;;;3.67;1.00;;;;;19.63;71.80;100315.22;5020429;28;45617;-66
2022/10/15 09:56:54;;;;;;;;;0.00;0.00;;;;;19.68;71.63;100313.31;5059545;28;45109;-66
2022/10/15 09:59:21;;;;;;;;;2.67;0.67;;;;;19.73;71.66;100323.16;5091431;28;45561;-67
2022/10/15 10:02:04;;;;;;;;;0.00;0.00;;;;;19.75;70.34;100324.97;5091535;28;45023;-65
2022/10/15 10:04:31;;;;;;;;;0.33;0.33;;;;;19.69;70.20;100330.47;5090961;28;45060;-64
2022/10/15 10:07:02;;;;;;;;;0.00;0.00;;;;;19.67;69.96;100352.16;5090468;28;45409;-66
2022/10/15 10:09:31;;;;;;;;;1.33;1.33;;;;;19.54;70.61;100334.34;5091238;28;45370;-66
2022/10/15 10:12:00;;;;;;;;;0.00;0.00;;;;;19.69;70.11;100358.44;5090608;27;45160;-66
2022/10/15 10:14:42;;;;;;;;;0.00;0.00;;;;;19.68;69.92;100353.97;5090466;28;45327;-66
2022/10/15 10:17:18;;;;;;;;;0.00;0.00;;;;;19.67;69.85;100354.88;5089419;28;45215;-66
2022/10/15 10:20:00;;;;;;;;;2.00;0.00;;;;;19.69;70.46;100357.56;5088676;28;45907;-69
2022/10/15 10:22:26;;;;;;;;;1.67;0.33;;;;;19.31;70.10;100289.56;5092933;28;45056;-66
2022/10/15 10:24:51;;;;;;;;;0.00;0.00;;;;;19.78;69.65;100367.38;5091278;28;45267;-68
2022/10/15 10:27:28;;;;;;;;;2.00;0.67;;;;;19.79;69.17;100355.63;5091051;28;52863;-65
2022/10/15 10:29:58;;;;;;;;;0.67;0.67;;;;;19.86;69.62;100376.25;5090410;28;45276;-67
2022/10/15 10:32:30;;;;;;;;;2.33;2.33;;;;;19.87;69.20;100361.78;5092045;28;45027;-66
2022/10/15 10:34:56;;;;;;;;;2.00;0.00;;;;;19.97;68.86;100363.41;5092336;28;45314;-66
2022/10/15 10:37:23;;;;;;;;;0.33;0.33;;;;;19.95;68.28;100367.97;5088609;28;45049;-66
2022/10/15 10:40:22;;;;;;;;;3.00;3.00;;;;;19.92;68.90;100380.69;5090966;28;45024;-68
2022/10/15 10:42:47;;;;;;;;;1.00;1.00;;;;;19.87;69.34;100383.47;5093455;28;45037;-69
2022/10/15 10:45:22;;;;;;;;;0.00;0.00;;;;;19.78;69.42;100387.25;5093005;28;46215;-66
2022/10/15 10:47:48;;;;;;;;;3.33;1.67;;;;;19.64;70.97;100384.72;5091614;28;47811;-66
2022/10/15 10:50:32;;;;;;;;;1.00;1.00;;;;;19.55;70.78;100365.94;5099405;27;46232;-66
2022/10/15 10:52:58;;;;;;;;;0.00;0.00;;;;;19.52;68.99;100375.00;5112655;27;44953;-66
2022/10/15 10:55:36;;;;;;;;;0.00;0.00;;;;;19.44;69.21;100384.19;5113651;27;45023;-66
2022/10/15 10:58:03;;;;;;;;;1.00;1.00;;;;;19.26;69.12;100359.16;5112993;27;45047;-66
2022/10/15 11:00:31;;;;;;;;;0.33;0.00;;;;;19.40;69.01;100379.72;5112702;27;45667;-66
2022/10/15 11:02:56;;;;;;;;;0.00;0.00;;;;;19.42;69.51;100395.03;5109946;27;44917;-67
2022/10/15 11:05:28;;;;;;;;;0.33;0.00;;;;;19.43;69.60;100387.78;5111806;27;45110;-67
2022/10/15 11:08:02;;;;;;;;;2.00;2.00;;;;;19.49;69.61;100391.31;5113357;27;45017;-69
2022/10/15 11:10:36;;;;;;;;;3.33;0.00;;;;;19.47;69.23;100373.31;5110167;27;45248;-66
2022/10/15 11:13:30;;;;;;;;;1.00;1.00;;;;;19.56;68.88;100389.38;5112682;27;44984;-67
2022/10/15 11:16:43;;;;;;;;;1.00;1.00;;;;;19.59;68.77;100397.47;5104852;27;45145;-66
2022/10/15 11:19:30;;;;;;;;;2.67;2.00;;;;;19.73;69.15;100396.34;5080894;27;45094;-69
2022/10/15 11:22:27;;;;;;;;;1.00;1.00;;;;;19.80;68.62;100392.63;5106992;27;45313;-66
2022/10/15 11:25:05;;;;;;;;;1.00;0.67;;;;;19.78;68.67;100408.03;5097308;27;45439;-68
2022/10/15 11:27:43;;;;;;;;;3.33;3.00;;;;;19.72;69.62;100417.13;5109206;27;45385;-66
2022/10/15 11:30:11;;;;;;;;;0.33;0.33;;;;;19.75;68.27;100410.75;5110439;27;45095;-69
2022/10/15 11:32:42;;;;;;;;;0.00;0.00;;;;;19.71;67.41;100407.22;5106805;27;45752;-65
2022/10/15 11:35:18;;;;;;;;;4.00;4.00;;;;;19.78;67.15;100413.44;5111311;27;45077;-66